449  
FGUS64 KORN 291625  
ESPORN  
 
EXTENDED STREAMFLOW PREDICTION  
NATIONAL WEATHER SERVICE RIVER FORECAST CENTER, SLIDELL, LA  
1625 PM GMT SUN JAN 29 2023  
 
DATE CPGM7 CIRI2 NMDM7 TPTM7 CRTM7 OSGA4 MEMT1 MHOM6 HEEA4  
01-30-23 12.4 28.5 17.8 22.0 19.6 13.7 14.7 13.8 22.2  
01-31-23 11.7 28.6 17.6 21.7 19.2 13.5 14.7 13.8 22.3  
02-01-23 11.1 28.9 17.9 21.8 19.2 13.4 14.5 13.8 22.3  
02-02-23 10.3 28.8 17.9 22.0 19.4 13.3 14.4 13.7 22.2  
02-03-23 9.5 28.2 17.6 21.8 19.4 13.3 14.4 13.6 22.1  
02-04-23 9.0 27.4 16.9 21.4 19.1 13.1 14.2 13.5 22.0  
02-05-23 8.5 27.0 16.4 20.9 18.7 12.7 13.7 13.3 21.8  
02-06-23 8.2 26.9 16.2 20.5 18.2 12.3 13.3 12.8 21.6  
02-07-23 7.8 26.1 15.8 20.2 17.9 11.9 13.0 12.3 21.1  
02-08-23 7.4 24.5 14.5 19.7 17.6 11.4 12.5 11.8 20.6  
02-09-23 7.3 23.0 13.0 18.2 16.5 10.6 11.9 11.3 20.1  
02-10-23 7.2 21.6 11.6 16.8 15.2 9.3 11.0 10.6 19.6  
02-11-23 7.3 20.5 10.5 15.5 13.9 7.9 9.6 9.4 18.7  
02-12-23 7.3 19.7 9.5 14.5 12.9 6.4 8.2 8.1 17.4  
02-13-23 7.3 19.2 8.9 13.7 12.1 5.4 7.0 6.8 16.2  
02-14-23 7.3 18.7 8.5 13.2 11.4 4.5 6.1 5.9 15.1  
02-15-23 7.2 18.3 8.1 12.7 10.9 3.9 5.4 5.1 14.2  
02-16-23 7.1 17.9 7.6 12.4 10.5 3.4 4.9 4.5 13.6  
02-17-23 6.9 17.5 7.2 12.0 10.2 3.0 4.5 4.1 13.1  
02-18-23 6.7 17.1 6.9 11.7 9.9 2.7 4.1 3.7 12.7  
02-19-23 6.4 16.8 6.6 11.4 9.6 2.4 3.8 3.4 12.4  
02-20-23 6.2 16.5 6.4 11.1 9.4 2.1 3.5 3.1 12.1  
02-21-23 6.0 16.2 6.1 10.9 9.1 1.7 3.2 2.8 11.8  
02-22-23 5.8 15.9 5.8 10.6 8.9 1.5 2.9 2.5 11.5  
02-23-23 5.7 15.7 5.6 10.4 8.7 1.2 2.7 2.2 11.3  
02-24-23 5.5 15.6 5.4 10.2 8.5 1.0 2.4 2.0 11.1  
02-25-23 5.4 15.4 5.2 9.9 8.2 0.8 2.2 1.8 10.8  
02-26-23 5.2 15.2 5.1 9.8 8.0 0.5 2.0 1.6 10.6  
 
DATE ARSA4 GEEM6 VCKM6 NTZM6 RRLL1 BTRL1 DONL1 RRVL1 NORL1  
01-30-23 20.5 30.5 27.8 36.4 39.8 23.1 14.9 10.9 6.8  
01-31-23 20.7 30.7 27.9 36.9 40.2 23.5 15.4 11.4 7.1  
02-01-23 20.9 30.8 28.1 37.0 40.6 23.8 15.8 11.8 7.6  
02-02-23 20.9 30.8 28.1 37.1 40.8 24.0 16.0 12.0 7.7  
02-03-23 20.8 30.7 28.2 37.1 40.9 24.1 16.1 12.1 7.8  
02-04-23 20.7 30.6 28.1 37.1 40.9 24.2 16.1 12.1 7.9  
02-05-23 20.5 30.4 28.0 37.0 40.9 24.2 16.1 12.1 7.9  
02-06-23 20.4 30.3 27.7 36.9 40.8 24.2 16.1 12.1 7.9  
02-07-23 20.1 30.1 27.5 36.6 40.6 24.1 16.0 12.1 7.9  
02-08-23 19.7 29.9 27.2 36.4 40.5 24.0 16.0 12.0 7.8  
02-09-23 19.3 29.6 26.9 36.2 40.3 23.9 15.9 12.0 7.8  
02-10-23 18.8 29.2 26.6 36.0 40.0 23.6 15.8 11.9 7.7  
02-11-23 18.2 28.8 26.3 35.6 39.8 23.4 15.6 11.8 7.7  
02-12-23 17.5 28.3 25.9 35.2 39.5 23.0 15.4 11.6 7.6  
02-13-23 16.3 27.6 25.5 34.7 39.1 22.7 15.1 11.5 7.5  
02-14-23 15.3 26.7 24.8 34.2 38.6 22.2 14.8 11.3 7.4  
02-15-23 14.2 26.0 24.1 33.5 38.2 21.7 14.5 11.1 7.2  
02-16-23 13.5 25.3 23.5 32.8 37.5 21.1 14.1 10.8 7.0  
02-17-23 12.9 24.8 22.8 32.2 36.9 20.6 13.7 10.6 6.9  
02-18-23 12.6 24.4 22.3 31.5 36.3 20.0 13.3 10.3 6.7  
02-19-23 12.2 24.2 22.0 31.0 35.7 19.5 13.0 10.0 6.5  
02-20-23 11.9 23.9 21.7 30.4 35.1 19.0 12.6 9.8 6.3  
02-21-23 11.7 23.7 21.5 30.0 34.6 18.4 12.2 9.5 6.1  
02-22-23 11.5 23.5 21.3 29.6 34.2 18.1 11.9 9.3 5.9  
02-23-23 11.2 23.4 21.2 29.2 33.8 17.7 11.5 9.0 5.8  
02-24-23 11.0 23.2 21.0 28.9 33.4 17.3 11.2 8.8 5.6  
02-25-23 10.8 23.0 20.8 28.6 33.1 17.0 11.0 8.6 5.4  
02-26-23 10.6 22.9 20.6 28.3 32.8 16.6 10.7 8.4 5.3  
 
NOTE: STAGE FORECASTS ARE BASED ON FUTURE RAINFALL COVERING  
THE NEXT 48 HOURS.  
 
END ORN  
 

 
 
CLICK HERE TO GO TO PREVIOUS BULLETINS.

The Nexlab RFC Page Main Text Page